createdAt,value
2022-12-05T00:01:19.419Z,89.07
2022-12-05T00:03:47.561Z,89.01
2022-12-05T00:06:14.824Z,89.32
2022-12-05T00:08:41.186Z,89.03
2022-12-05T00:11:13.164Z,88.99
2022-12-05T00:13:40.896Z,89.58
2022-12-05T00:16:09.871Z,89.10
2022-12-05T00:18:36.459Z,89.06
2022-12-05T00:21:03.413Z,89.31
2022-12-05T00:23:30.412Z,89.36
2022-12-05T00:25:56.856Z,89.11
2022-12-05T00:28:23.231Z,88.92
2022-12-05T00:30:49.612Z,89.35
2022-12-05T00:33:15.960Z,89.18
2022-12-05T00:35:42.315Z,88.92
2022-12-05T00:38:08.714Z,89.39
2022-12-05T00:40:36.253Z,89.53
2022-12-05T00:43:02.695Z,89.46
2022-12-05T00:45:29.228Z,89.37
2022-12-05T00:47:55.665Z,89.51
2022-12-05T00:50:22.028Z,89.14
2022-12-05T00:52:48.388Z,89.37
2022-12-05T00:55:14.738Z,89.37
2022-12-05T00:57:41.110Z,89.77
2022-12-05T01:00:08.243Z,89.96
2022-12-05T01:02:34.598Z,89.98
2022-12-05T01:05:01.083Z,89.94
2022-12-05T01:07:27.431Z,89.91
2022-12-05T01:09:53.885Z,89.86
2022-12-05T01:12:20.234Z,90.04
2022-12-05T01:14:46.613Z,90.19
2022-12-05T01:17:12.969Z,90.25
2022-12-05T01:19:39.296Z,90.25
2022-12-05T01:22:05.779Z,90.61
2022-12-05T01:24:32.243Z,90.82
2022-12-05T01:26:58.691Z,90.59
2022-12-05T01:29:25.892Z,91.12
2022-12-05T01:31:53.158Z,91.26
2022-12-05T01:34:20.306Z,91.05
2022-12-05T01:36:47.084Z,91.44
2022-12-05T01:39:14.643Z,91.75
2022-12-05T01:41:44.503Z,91.89
2022-12-05T01:44:10.783Z,91.92
2022-12-05T01:46:39.934Z,92.00
2022-12-05T01:49:19.498Z,92.08
2022-12-05T01:51:48.452Z,91.81
2022-12-05T01:54:17.203Z,92.13
2022-12-05T01:56:48.359Z,92.02
2022-12-05T01:59:15.878Z,92.27
2022-12-05T02:01:42.283Z,92.38
2022-12-05T02:04:09.820Z,92.23
2022-12-05T02:06:36.376Z,92.65
2022-12-05T02:09:03.436Z,92.71
2022-12-05T02:11:32.191Z,92.80
2022-12-05T02:14:10.830Z,93.01
2022-12-05T02:17:12.763Z,92.77
2022-12-05T02:19:57.618Z,92.70
2022-12-05T02:23:16.643Z,93.06
2022-12-05T02:26:07.984Z,93.14
2022-12-05T02:29:12.031Z,93.10
2022-12-05T02:32:10.185Z,93.25
2022-12-05T02:34:59.917Z,93.30
2022-12-05T02:37:32.263Z,93.42
2022-12-05T02:40:14.985Z,93.54
2022-12-05T02:42:53.418Z,93.59
2022-12-05T02:45:23.175Z,93.70
2022-12-05T02:47:53.039Z,93.57
2022-12-05T02:50:24.118Z,93.61
2022-12-05T02:52:54.430Z,93.47
2022-12-05T02:55:22.679Z,93.69
2022-12-05T02:57:54.795Z,94.01
2022-12-05T03:00:21.908Z,93.81
2022-12-05T03:02:51.062Z,93.41
2022-12-05T03:05:42.673Z,93.61
2022-12-05T03:08:15.399Z,93.26
2022-12-05T03:10:44.272Z,93.48
2022-12-05T03:13:16.230Z,93.49
2022-12-05T03:15:48.979Z,93.33
2022-12-05T03:18:26.563Z,93.20
2022-12-05T03:21:35.921Z,93.48
2022-12-05T03:24:07.944Z,93.47
2022-12-05T03:27:07.408Z,93.42
2022-12-05T03:29:46.675Z,93.20
2022-12-05T03:32:35.484Z,92.94
2022-12-05T03:35:14.472Z,92.99
2022-12-05T03:37:50.195Z,93.29
2022-12-05T03:40:42.076Z,93.08
2022-12-05T03:43:10.435Z,93.26
2022-12-05T03:45:50.569Z,92.98
2022-12-05T03:48:32.203Z,93.36
2022-12-05T03:51:00.947Z,92.91
2022-12-05T03:53:36.122Z,92.83
2022-12-05T03:56:08.366Z,93.16
2022-12-05T03:58:48.772Z,92.76
2022-12-05T04:01:18.298Z,92.81
2022-12-05T04:03:51.966Z,93.02
2022-12-05T04:06:28.963Z,93.50
2022-12-05T04:09:03.134Z,92.98
2022-12-05T04:11:34.536Z,93.01
2022-12-05T04:14:10.733Z,92.96
2022-12-05T04:17:03.946Z,93.05
2022-12-05T04:19:58.310Z,93.26
2022-12-05T04:22:25.983Z,93.17
2022-12-05T04:25:13.846Z,93.75
2022-12-05T04:27:58.036Z,93.25
2022-12-05T04:30:38.267Z,93.40
2022-12-05T04:33:07.315Z,93.28
2022-12-05T04:35:49.018Z,93.52
2022-12-05T04:38:20.878Z,93.77
2022-12-05T04:41:03.079Z,94.13
2022-12-05T04:43:33.276Z,93.82
2022-12-05T04:46:00.874Z,94.16
2022-12-05T04:48:28.202Z,93.96
2022-12-05T04:50:56.897Z,94.30
2022-12-05T04:53:27.935Z,93.99
2022-12-05T04:55:57.416Z,94.43
2022-12-05T04:58:27.080Z,94.46
2022-12-05T05:01:06.211Z,94.26
2022-12-05T05:03:51.157Z,94.15
2022-12-05T05:06:17.751Z,94.35
2022-12-05T05:08:53.319Z,94.91
2022-12-05T05:11:25.748Z,94.83
2022-12-05T05:13:53.203Z,94.50
2022-12-05T05:16:27.657Z,94.65
2022-12-05T05:18:54.664Z,94.57
2022-12-05T05:21:26.516Z,94.62
2022-12-05T05:23:53.307Z,95.04
2022-12-05T05:26:20.339Z,94.75
2022-12-05T05:28:47.231Z,94.93
2022-12-05T05:31:14.336Z,95.18
2022-12-05T05:33:40.745Z,94.99
2022-12-05T05:36:10.366Z,95.16
2022-12-05T05:38:42.953Z,95.41
2022-12-05T05:41:19.798Z,95.18
2022-12-05T05:43:46.766Z,95.19
2022-12-05T05:46:14.645Z,95.22
2022-12-05T05:48:41.446Z,95.35
2022-12-05T05:51:10.442Z,95.22
2022-12-05T05:53:37.154Z,95.29
2022-12-05T05:56:09.175Z,95.08
2022-12-05T05:58:35.546Z,95.47
2022-12-05T06:01:10.473Z,95.37
2022-12-05T06:03:37.755Z,95.13
2022-12-05T06:06:07.737Z,95.55
2022-12-05T06:08:35.669Z,95.52
2022-12-05T06:11:10.789Z,95.58
2022-12-05T06:13:37.962Z,95.07
2022-12-05T06:16:09.748Z,95.57
2022-12-05T06:18:36.812Z,95.46
2022-12-05T06:21:05.733Z,95.38
2022-12-05T06:23:32.169Z,95.11
2022-12-05T06:25:58.535Z,95.31
2022-12-05T06:28:25.836Z,95.72
2022-12-05T06:30:52.865Z,95.37
2022-12-05T06:33:20.643Z,95.32
2022-12-05T06:35:47.487Z,95.53
2022-12-05T06:38:13.987Z,95.22
2022-12-05T06:40:44.976Z,95.73
2022-12-05T06:43:11.644Z,95.13
2022-12-05T06:45:38.570Z,95.38
2022-12-05T06:48:05.343Z,95.30
2022-12-05T06:50:31.837Z,95.87
2022-12-05T06:52:58.292Z,95.49
2022-12-05T06:55:24.618Z,95.46
2022-12-05T06:57:50.991Z,95.34
2022-12-05T07:00:36.216Z,95.34
2022-12-05T07:03:02.668Z,95.77
2022-12-05T07:05:29.026Z,95.39
2022-12-05T07:07:55.550Z,95.07
2022-12-05T07:10:21.954Z,95.08
2022-12-05T07:12:48.343Z,95.18
2022-12-05T07:15:14.739Z,95.30
2022-12-05T07:17:41.099Z,95.27
2022-12-05T07:20:08.324Z,95.50
2022-12-05T07:22:36.580Z,95.26
2022-12-05T07:25:03.831Z,95.39
2022-12-05T07:27:31.050Z,95.61
2022-12-05T07:29:57.914Z,95.55
2022-12-05T07:32:24.472Z,95.81
2022-12-05T07:34:54.960Z,95.64
2022-12-05T07:37:21.766Z,95.71
2022-12-05T07:39:48.246Z,95.60
2022-12-05T07:42:14.568Z,95.88
2022-12-05T07:44:40.943Z,95.64
2022-12-05T07:47:07.348Z,95.43
2022-12-05T07:49:33.728Z,95.55
2022-12-05T07:52:00.127Z,95.77
2022-12-05T07:54:26.499Z,95.39
2022-12-05T07:56:52.852Z,95.35
2022-12-05T07:59:19.215Z,95.85
2022-12-05T08:01:45.640Z,95.61
2022-12-05T08:04:15.281Z,95.56
2022-12-05T08:06:42.030Z,95.66
2022-12-05T08:09:08.477Z,95.16
2022-12-05T08:11:37.886Z,95.63
2022-12-05T08:14:05.628Z,95.46
2022-12-05T08:16:32.779Z,95.36
2022-12-05T08:19:08.255Z,95.30
2022-12-05T08:21:35.325Z,95.53
2022-12-05T08:24:05.383Z,95.45
2022-12-05T08:26:33.362Z,95.18
2022-12-05T08:29:02.713Z,95.08
2022-12-05T08:31:31.730Z,95.70
2022-12-05T08:33:59.835Z,95.30
2022-12-05T08:36:28.824Z,95.46
2022-12-05T08:38:57.454Z,95.18
2022-12-05T08:41:28.363Z,95.56
2022-12-05T08:43:59.513Z,95.06
2022-12-05T08:46:26.023Z,95.51
2022-12-05T08:48:52.494Z,95.36
2022-12-05T08:51:18.895Z,95.07
2022-12-05T08:53:45.263Z,95.16
2022-12-05T08:56:12.089Z,95.32
2022-12-05T08:58:38.825Z,95.29
2022-12-05T09:01:09.725Z,95.41
2022-12-05T09:03:36.329Z,95.50
2022-12-05T09:06:12.119Z,95.25
2022-12-05T09:08:39.391Z,95.30
2022-12-05T09:11:14.049Z,94.71
2022-12-05T09:13:41.313Z,94.97
2022-12-05T09:16:09.821Z,95.21
2022-12-05T09:18:36.498Z,95.30
2022-12-05T09:21:15.660Z,95.16
2022-12-05T09:23:42.904Z,95.56
2022-12-05T09:26:12.260Z,95.39
2022-12-05T09:28:39.398Z,94.89
2022-12-05T09:31:09.002Z,94.92
2022-12-05T09:33:37.213Z,95.41
2022-12-05T09:36:05.504Z,94.87
2022-12-05T09:38:32.044Z,95.01
2022-12-05T09:41:45.634Z,95.32
2022-12-05T09:44:27.997Z,95.04
2022-12-05T09:47:28.375Z,95.09
2022-12-05T09:49:58.954Z,94.71
2022-12-05T09:52:28.906Z,94.82
2022-12-05T09:54:57.390Z,95.08
2022-12-05T09:57:35.595Z,94.95
2022-12-05T10:00:05.280Z,94.47
2022-12-05T10:02:50.435Z,94.57
2022-12-05T10:05:25.670Z,94.43
2022-12-05T10:08:02.921Z,95.15
2022-12-05T10:10:38.839Z,94.53
2022-12-05T10:13:20.272Z,95.00
2022-12-05T10:15:57.192Z,94.53
2022-12-05T10:18:40.607Z,94.86
2022-12-05T10:21:12.887Z,94.62
2022-12-05T10:24:01.883Z,94.39
2022-12-05T10:26:40.846Z,94.65
2022-12-05T10:29:22.494Z,94.51
2022-12-05T10:31:49.830Z,94.76
2022-12-05T10:34:33.412Z,94.52
2022-12-05T10:37:11.358Z,94.49
2022-12-05T10:39:38.671Z,94.76
2022-12-05T10:42:09.088Z,94.83
2022-12-05T10:44:36.207Z,94.83
2022-12-05T10:47:02.811Z,94.65
2022-12-05T10:49:30.502Z,94.72
2022-12-05T10:51:57.463Z,95.13
2022-12-05T10:54:31.040Z,95.21
2022-12-05T10:56:57.656Z,95.19
2022-12-05T10:59:26.732Z,95.68
2022-12-05T11:01:59.812Z,95.15
2022-12-05T11:04:40.866Z,95.66
2022-12-05T11:07:23.458Z,95.73
2022-12-05T11:09:49.987Z,95.87
2022-12-05T11:12:25.999Z,95.99
2022-12-05T11:15:07.062Z,96.34
2022-12-05T11:17:36.425Z,95.86
2022-12-05T11:20:22.703Z,95.97
2022-12-05T11:22:51.826Z,96.10
2022-12-05T11:25:29.579Z,95.84
2022-12-05T11:28:01.550Z,95.98
2022-12-05T11:30:29.708Z,96.60
2022-12-05T11:33:22.418Z,95.85
2022-12-05T11:35:51.828Z,96.15
2022-12-05T11:38:21.739Z,96.13
2022-12-05T11:40:55.023Z,96.63
2022-12-05T11:43:24.510Z,96.18
2022-12-05T11:46:09.123Z,96.21
2022-12-05T11:49:06.477Z,96.67
2022-12-05T11:51:47.783Z,96.51
2022-12-05T11:55:06.755Z,96.58
2022-12-05T11:57:50.440Z,96.97
2022-12-05T12:00:28.519Z,96.69
2022-12-05T12:03:22.221Z,96.38
2022-12-05T12:06:06.667Z,96.66
2022-12-05T12:08:52.619Z,96.52
2022-12-05T12:11:49.440Z,96.93
2022-12-05T12:14:27.937Z,96.34
2022-12-05T12:16:57.453Z,96.72
2022-12-05T12:19:48.412Z,96.90
2022-12-05T12:22:52.260Z,96.35
2022-12-05T12:25:38.505Z,96.40
2022-12-05T12:28:37.462Z,96.66
2022-12-05T12:31:17.388Z,97.05
2022-12-05T12:33:57.842Z,96.70
2022-12-05T12:36:28.564Z,96.60
2022-12-05T12:39:06.598Z,96.84
2022-12-05T12:41:44.663Z,96.44
2022-12-05T12:45:01.643Z,96.67
2022-12-05T12:47:52.483Z,96.66
2022-12-05T12:50:25.315Z,96.67
2022-12-05T12:53:19.571Z,97.12
2022-12-05T12:55:54.425Z,96.94
2022-12-05T12:58:32.869Z,96.99
2022-12-05T13:01:15.960Z,96.59
2022-12-05T13:04:02.872Z,96.83
2022-12-05T13:06:37.330Z,96.42
2022-12-05T13:09:24.335Z,96.16
2022-12-05T13:11:53.407Z,96.39
2022-12-05T13:14:25.032Z,95.92
2022-12-05T13:16:54.353Z,96.29
2022-12-05T13:19:38.987Z,96.12
2022-12-05T13:22:07.451Z,96.12
2022-12-05T13:24:33.950Z,96.22
2022-12-05T13:27:02.706Z,96.03
2022-12-05T13:29:36.274Z,95.78
2022-12-05T13:32:05.466Z,96.31
2022-12-05T13:34:34.128Z,96.15
2022-12-05T13:37:29.089Z,96.64
2022-12-05T13:40:16.462Z,96.45
2022-12-05T13:42:44.065Z,96.71
2022-12-05T13:45:20.025Z,96.31
2022-12-05T13:48:07.964Z,96.54
2022-12-05T13:50:50.060Z,95.98
2022-12-05T13:53:28.502Z,96.40
2022-12-05T13:56:04.914Z,96.00
2022-12-05T13:58:31.251Z,96.12
2022-12-05T14:01:36.986Z,96.87
2022-12-05T14:04:23.031Z,96.88
2022-12-05T14:06:56.750Z,96.44
2022-12-05T14:09:47.933Z,96.67
2022-12-05T14:12:14.238Z,96.60
2022-12-05T14:14:55.872Z,96.56
2022-12-05T14:17:29.632Z,96.45
2022-12-05T14:20:08.570Z,96.64
2022-12-05T14:22:50.477Z,96.67
2022-12-05T14:25:53.043Z,96.90
2022-12-05T14:28:50.198Z,96.51
2022-12-05T14:31:37.958Z,96.82
2022-12-05T14:34:24.725Z,96.29
2022-12-05T14:37:16.119Z,96.38
2022-12-05T14:39:46.006Z,96.89
2022-12-05T14:42:21.469Z,96.40
2022-12-05T14:44:50.174Z,96.90
2022-12-05T14:47:25.221Z,97.08
2022-12-05T14:49:54.781Z,97.13
2022-12-05T14:52:24.605Z,97.19
2022-12-05T14:54:53.703Z,96.85
2022-12-05T14:57:21.069Z,97.05
2022-12-05T15:00:01.685Z,96.66
2022-12-05T15:02:45.218Z,96.42
2022-12-05T15:05:17.635Z,96.61
2022-12-05T15:07:46.194Z,97.18
2022-12-05T15:10:21.720Z,97.17
2022-12-05T15:12:54.021Z,97.00
2022-12-05T15:15:39.290Z,96.72
2022-12-05T15:18:12.279Z,97.31
2022-12-05T15:20:58.349Z,96.91
2022-12-05T15:23:45.522Z,96.78
2022-12-05T15:26:48.473Z,96.77
2022-12-05T15:29:23.437Z,97.16
2022-12-05T15:32:07.490Z,97.21
2022-12-05T15:34:41.894Z,96.67
2022-12-05T15:37:19.475Z,97.33
2022-12-05T15:39:59.805Z,97.26
2022-12-05T15:42:30.453Z,96.99
2022-12-05T15:45:12.006Z,97.06
2022-12-05T15:47:39.139Z,96.98
2022-12-05T15:50:06.427Z,97.43
2022-12-05T15:52:45.951Z,97.15
2022-12-05T15:55:21.567Z,96.78
2022-12-05T15:57:54.415Z,97.06
2022-12-05T16:00:23.433Z,97.24
2022-12-05T16:03:10.735Z,96.93
2022-12-05T16:05:53.538Z,96.95
2022-12-05T16:08:20.118Z,97.23
2022-12-05T16:10:46.646Z,97.32
2022-12-05T16:13:20.891Z,96.48
2022-12-05T16:15:52.995Z,96.67
2022-12-05T16:18:28.895Z,97.16
2022-12-05T16:20:56.052Z,96.69
2022-12-05T16:23:48.485Z,96.85
2022-12-05T16:26:20.743Z,97.36
2022-12-05T16:29:00.833Z,96.92
2022-12-05T16:31:33.080Z,97.16
2022-12-05T16:34:07.864Z,96.68
2022-12-05T16:36:35.143Z,96.86
2022-12-05T16:39:04.720Z,96.87
2022-12-05T16:41:39.061Z,96.95
2022-12-05T16:44:25.854Z,97.01
2022-12-05T16:46:53.334Z,96.82
2022-12-05T16:49:32.221Z,96.89
2022-12-05T16:52:00.047Z,96.59
2022-12-05T16:54:26.516Z,96.99
2022-12-05T16:56:52.967Z,97.14
2022-12-05T16:59:34.879Z,97.09
2022-12-05T17:02:03.437Z,97.25
2022-12-05T17:04:31.353Z,97.14
2022-12-05T17:06:57.774Z,96.91
2022-12-05T17:09:25.213Z,96.79
2022-12-05T17:11:58.454Z,96.83
2022-12-05T17:14:24.802Z,96.53
2022-12-05T17:16:51.183Z,96.47
2022-12-05T17:19:17.967Z,96.90
2022-12-05T17:21:44.800Z,96.60
2022-12-05T17:24:18.462Z,97.06
2022-12-05T17:26:46.281Z,96.92
2022-12-05T17:29:13.026Z,96.84
2022-12-05T17:31:39.615Z,96.91
2022-12-05T17:34:14.207Z,97.21
2022-12-05T17:36:40.608Z,97.21
2022-12-05T17:39:08.186Z,97.08
2022-12-05T17:41:34.772Z,96.79
2022-12-05T17:44:01.142Z,96.52
2022-12-05T17:46:27.524Z,96.98
2022-12-05T17:48:53.938Z,96.65
2022-12-05T17:51:21.200Z,96.88
2022-12-05T17:53:47.728Z,96.84
2022-12-05T17:56:14.257Z,96.80
2022-12-05T17:58:41.203Z,96.55
2022-12-05T18:01:10.616Z,97.08
2022-12-05T18:03:37.130Z,96.99
2022-12-05T18:06:05.076Z,96.32
2022-12-05T18:08:31.423Z,96.95
2022-12-05T18:10:58.439Z,97.06
2022-12-05T18:13:24.908Z,96.74
2022-12-05T18:15:56.654Z,96.55
2022-12-05T18:18:23.139Z,97.30
2022-12-05T18:20:49.523Z,96.75
2022-12-05T18:23:15.859Z,96.91
2022-12-05T18:25:42.942Z,96.83
2022-12-05T18:28:09.314Z,96.40
2022-12-05T18:30:35.686Z,96.84
2022-12-05T18:33:02.093Z,96.94
2022-12-05T18:35:40.794Z,96.45
2022-12-05T18:38:08.798Z,96.52
2022-12-05T18:40:35.147Z,96.74
2022-12-05T18:43:02.067Z,96.64
2022-12-05T18:45:28.635Z,96.76
2022-12-05T18:48:04.589Z,96.67
2022-12-05T18:50:42.573Z,96.69
2022-12-05T18:53:09.350Z,96.47
2022-12-05T18:56:04.614Z,96.29
2022-12-05T18:58:22.159Z,96.37
2022-12-05T19:00:48.556Z,96.30
2022-12-05T19:03:14.937Z,96.82
2022-12-05T19:05:43.264Z,96.26
2022-12-05T19:08:09.649Z,96.38
2022-12-05T19:10:36.487Z,96.23
2022-12-05T19:13:02.914Z,96.24
2022-12-05T19:15:29.239Z,96.45
2022-12-05T19:17:55.593Z,95.86
2022-12-05T19:20:22.040Z,96.31
2022-12-05T19:22:48.434Z,96.31
2022-12-05T19:25:14.902Z,96.03
2022-12-05T19:27:41.386Z,96.06
2022-12-05T19:30:10.397Z,96.07
2022-12-05T19:32:40.406Z,96.18
2022-12-05T19:35:07.592Z,95.78
2022-12-05T19:37:34.299Z,96.46
2022-12-05T19:40:00.987Z,96.33
2022-12-05T19:42:29.282Z,95.71
2022-12-05T19:44:55.685Z,96.14
2022-12-05T19:47:22.072Z,96.37
2022-12-05T19:49:48.440Z,96.17
2022-12-05T19:52:17.716Z,96.39
2022-12-05T19:54:47.150Z,96.19
2022-12-05T19:57:13.552Z,96.88
2022-12-05T19:59:39.893Z,96.03
2022-12-05T20:02:06.289Z,96.43
2022-12-05T20:04:32.831Z,96.46
2022-12-05T20:06:59.266Z,96.50
2022-12-05T20:09:25.630Z,96.16
2022-12-05T20:11:55.475Z,96.88
2022-12-05T20:14:24.236Z,96.57
2022-12-05T20:16:50.684Z,96.53
2022-12-05T20:19:17.130Z,96.68
2022-12-05T20:21:44.564Z,96.71
2022-12-05T20:24:11.447Z,96.69
2022-12-05T20:26:40.694Z,96.45
2022-12-05T20:29:07.682Z,96.66
2022-12-05T20:31:37.111Z,96.57
2022-12-05T20:34:05.498Z,96.90
2022-12-05T20:36:33.436Z,97.08
2022-12-05T20:39:02.501Z,96.46
2022-12-05T20:41:29.282Z,96.75
2022-12-05T20:43:58.330Z,96.93
2022-12-05T20:46:27.006Z,96.91
2022-12-05T20:48:54.443Z,96.05
2022-12-05T20:51:24.141Z,96.27
2022-12-05T20:53:51.290Z,96.55
2022-12-05T20:56:20.343Z,96.31
2022-12-05T20:58:52.388Z,96.58
2022-12-05T21:01:20.749Z,96.91
2022-12-05T21:03:50.156Z,96.61
2022-12-05T21:06:18.182Z,96.54
2022-12-05T21:08:44.722Z,96.50
2022-12-05T21:11:12.561Z,96.30
2022-12-05T21:13:39.783Z,96.62
2022-12-05T21:16:09.490Z,96.59
2022-12-05T21:18:35.997Z,96.42
2022-12-05T21:21:06.298Z,96.32
2022-12-05T21:23:33.283Z,96.74
2022-12-05T21:26:05.005Z,96.72
2022-12-05T21:28:32.890Z,97.07
2022-12-05T21:31:14.237Z,96.50
2022-12-05T21:33:42.369Z,96.27
2022-12-05T21:36:09.375Z,96.70
2022-12-05T21:38:35.932Z,96.42
2022-12-05T21:41:03.975Z,96.37
2022-12-05T21:43:30.978Z,97.01
2022-12-05T21:45:57.447Z,96.89
2022-12-05T21:48:24.652Z,97.17
2022-12-05T21:50:51.967Z,96.67
2022-12-05T21:53:19.423Z,96.79
2022-12-05T21:55:45.827Z,97.31
2022-12-05T21:58:12.884Z,96.96
2022-12-05T22:00:39.896Z,97.09
2022-12-05T22:03:06.739Z,97.24
2022-12-05T22:05:35.992Z,96.94
2022-12-05T22:08:06.194Z,97.07
2022-12-05T22:10:36.389Z,97.19
2022-12-05T22:13:03.283Z,97.12
2022-12-05T22:15:29.954Z,96.96
2022-12-05T22:17:56.519Z,96.55
2022-12-05T22:20:23.274Z,96.70
2022-12-05T22:22:49.719Z,96.74
2022-12-05T22:25:16.129Z,96.79
2022-12-05T22:27:42.489Z,96.81
2022-12-05T22:30:09.346Z,96.78
2022-12-05T22:32:36.081Z,96.77
2022-12-05T22:35:04.224Z,96.69
2022-12-05T22:37:31.021Z,96.46
2022-12-05T22:39:57.821Z,96.10
2022-12-05T22:42:26.086Z,96.05
2022-12-05T22:44:52.438Z,96.28
2022-12-05T22:47:18.914Z,96.30
2022-12-05T22:49:45.246Z,96.02
2022-12-05T22:52:11.596Z,96.45
2022-12-05T22:54:38.064Z,95.80
2022-12-05T22:57:04.433Z,95.65
2022-12-05T22:59:30.804Z,96.38
2022-12-05T23:01:57.235Z,95.83
2022-12-05T23:04:23.954Z,96.15
2022-12-05T23:06:50.350Z,96.01
2022-12-05T23:09:16.731Z,96.25
2022-12-05T23:11:43.114Z,96.22
2022-12-05T23:14:09.554Z,95.92
2022-12-05T23:16:36.155Z,96.03
2022-12-05T23:19:04.883Z,96.24
2022-12-05T23:21:35.527Z,96.17
2022-12-05T23:24:04.606Z,95.68
2022-12-05T23:26:35.189Z,95.83
2022-12-05T23:29:01.827Z,95.65
2022-12-05T23:31:28.333Z,96.40
2022-12-05T23:33:58.453Z,96.08
2022-12-05T23:36:29.696Z,95.98
2022-12-05T23:38:56.042Z,96.49
2022-12-05T23:41:24.035Z,95.76
2022-12-05T23:43:51.575Z,96.16
2022-12-05T23:46:21.160Z,95.94
2022-12-05T23:48:48.132Z,95.91
2022-12-05T23:51:19.823Z,96.52
2022-12-05T23:53:47.624Z,96.02
2022-12-05T23:56:17.275Z,96.15
2022-12-05T23:58:44.789Z,96.13
